sensor_id;sensor_type;location;lat;lon;timestamp;pressure;altitude;pressure_sealevel;temperature;humidity
9923;BME280;5000;50.546;9.720;2023-11-19T00:04:40;97786.09;;;23.61;51.45
9923;BME280;5000;50.546;9.720;2023-11-19T00:09:33;97776.84;;;23.55;51.68
9923;BME280;5000;50.546;9.720;2023-11-19T00:14:28;97776.53;;;23.50;51.69
9923;BME280;5000;50.546;9.720;2023-11-19T00:19:22;97787.84;;;23.45;51.96
9923;BME280;5000;50.546;9.720;2023-11-19T00:24:16;97773.47;;;23.45;51.87
9923;BME280;5000;50.546;9.720;2023-11-19T00:29:09;97761.50;;;23.39;52.09
9923;BME280;5000;50.546;9.720;2023-11-19T00:34:02;97745.19;;;23.32;52.44
9923;BME280;5000;50.546;9.720;2023-11-19T00:38:57;97749.03;;;23.30;51.92
9923;BME280;5000;50.546;9.720;2023-11-19T00:43:52;97736.75;;;23.27;52.08
9923;BME280;5000;50.546;9.720;2023-11-19T00:48:45;97706.38;;;23.17;52.40
9923;BME280;5000;50.546;9.720;2023-11-19T00:53:39;97723.06;;;23.20;52.26
9923;BME280;5000;50.546;9.720;2023-11-19T00:58:32;97723.06;;;23.12;52.51
9923;BME280;5000;50.546;9.720;2023-11-19T01:03:26;97726.63;;;23.04;52.70
9923;BME280;5000;50.546;9.720;2023-11-19T01:08:20;97724.25;;;23.01;52.77
9923;BME280;5000;50.546;9.720;2023-11-19T01:13:13;97711.09;;;22.98;52.93
9923;BME280;5000;50.546;9.720;2023-11-19T01:18:06;97704.56;;;23.01;52.76
9923;BME280;5000;50.546;9.720;2023-11-19T01:23:02;97703.69;;;22.92;52.97
9923;BME280;5000;50.546;9.720;2023-11-19T01:27:55;97690.53;;;22.97;53.06
9923;BME280;5000;50.546;9.720;2023-11-19T01:32:50;97691.56;;;22.96;53.15
9923;BME280;5000;50.546;9.720;2023-11-19T01:37:43;97676.06;;;22.90;52.92
9923;BME280;5000;50.546;9.720;2023-11-19T01:42:38;97679.75;;;22.81;53.22
9923;BME280;5000;50.546;9.720;2023-11-19T01:47:31;97673.38;;;22.73;53.33
9923;BME280;5000;50.546;9.720;2023-11-19T01:52:25;97661.22;;;22.69;53.44
9923;BME280;5000;50.546;9.720;2023-11-19T01:57:19;97649.09;;;22.73;53.34
9923;BME280;5000;50.546;9.720;2023-11-19T02:02:14;97640.84;;;22.75;53.30
9923;BME280;5000;50.546;9.720;2023-11-19T02:07:07;97638.31;;;22.73;53.41
9923;BME280;5000;50.546;9.720;2023-11-19T02:12:03;97630.75;;;22.69;53.46
9923;BME280;5000;50.546;9.720;2023-11-19T02:16:56;97619.47;;;22.65;53.59
9923;BME280;5000;50.546;9.720;2023-11-19T02:21:51;97614.56;;;22.60;53.71
9923;BME280;5000;50.546;9.720;2023-11-19T02:26:50;97609.19;;;22.52;53.79
9923;BME280;5000;50.546;9.720;2023-11-19T02:31:49;97593.84;;;22.53;53.92
9923;BME280;5000;50.546;9.720;2023-11-19T02:36:42;97581.88;;;22.55;53.76
9923;BME280;5000;50.546;9.720;2023-11-19T02:41:35;97569.28;;;22.48;53.81
9923;BME280;5000;50.546;9.720;2023-11-19T02:46:28;97574.66;;;22.48;53.76
9923;BME280;5000;50.546;9.720;2023-11-19T02:51:22;97568.75;;;22.52;53.84
9923;BME280;5000;50.546;9.720;2023-11-19T02:56:15;97566.41;;;22.49;53.83
9923;BME280;5000;50.546;9.720;2023-11-19T03:01:12;97573.78;;;22.39;53.99
9923;BME280;5000;50.546;9.720;2023-11-19T03:06:15;97574.13;;;22.27;54.22
9923;BME280;5000;50.546;9.720;2023-11-19T03:11:09;97581.38;;;22.35;54.05
9923;BME280;5000;50.546;9.720;2023-11-19T03:16:02;97581.88;;;22.30;54.19
9923;BME280;5000;50.546;9.720;2023-11-19T03:20:55;97563.88;;;22.31;54.35
9923;BME280;5000;50.546;9.720;2023-11-19T03:25:50;97566.88;;;22.28;54.33
9923;BME280;5000;50.546;9.720;2023-11-19T03:30:45;97555.75;;;22.23;54.58
9923;BME280;5000;50.546;9.720;2023-11-19T03:35:38;97556.13;;;22.28;54.52
9923;BME280;5000;50.546;9.720;2023-11-19T03:40:32;97547.03;;;22.29;54.30
9923;BME280;5000;50.546;9.720;2023-11-19T03:45:25;97539.28;;;22.26;54.58
9923;BME280;5000;50.546;9.720;2023-11-19T03:50:20;97544.66;;;22.26;54.53
9923;BME280;5000;50.546;9.720;2023-11-19T03:55:13;97550.22;;;22.16;54.90
9923;BME280;5000;50.546;9.720;2023-11-19T04:00:07;97559.13;;;22.17;55.04
9923;BME280;5000;50.546;9.720;2023-11-19T04:05:05;97558.63;;;22.13;54.81
9923;BME280;5000;50.546;9.720;2023-11-19T04:10:00;97549.53;;;22.14;54.92
9923;BME280;5000;50.546;9.720;2023-11-19T04:14:55;97539.28;;;22.09;55.21
9923;BME280;5000;50.546;9.720;2023-11-19T04:19:51;97539.28;;;22.09;54.92
9923;BME280;5000;50.546;9.720;2023-11-19T04:24:43;97541.97;;;22.09;55.19
9923;BME280;5000;50.546;9.720;2023-11-19T04:29:39;97533.56;;;22.12;54.76
9923;BME280;5000;50.546;9.720;2023-11-19T04:34:31;97511.50;;;22.09;55.04
9923;BME280;5000;50.546;9.720;2023-11-19T04:39:25;97516.72;;;22.10;55.39
9923;BME280;5000;50.546;9.720;2023-11-19T04:44:18;97514.19;;;22.09;55.10
9923;BME280;5000;50.546;9.720;2023-11-19T04:49:13;97511.00;;;22.05;55.28
9923;BME280;5000;50.546;9.720;2023-11-19T04:54:06;97505.97;;;22.02;55.25
9923;BME280;5000;50.546;9.720;2023-11-19T04:59:00;97493.00;;;22.06;55.31
9923;BME280;5000;50.546;9.720;2023-11-19T05:03:53;97492.50;;;22.02;55.24
9923;BME280;5000;50.546;9.720;2023-11-19T05:08:48;97499.38;;;22.05;54.97
9923;BME280;5000;50.546;9.720;2023-11-19T05:13:40;97504.28;;;22.01;55.08
9923;BME280;5000;50.546;9.720;2023-11-19T05:18:34;97496.88;;;22.03;55.38
9923;BME280;5000;50.546;9.720;2023-11-19T05:23:27;97515.38;;;21.98;55.63
9923;BME280;5000;50.546;9.720;2023-11-19T05:28:21;97511.66;;;21.99;55.38
9923;BME280;5000;50.546;9.720;2023-11-19T05:33:16;97518.75;;;22.00;55.49
9923;BME280;5000;50.546;9.720;2023-11-19T05:38:09;97526.47;;;21.95;55.58
9923;BME280;5000;50.546;9.720;2023-11-19T05:43:02;97519.25;;;21.95;55.59
9923;BME280;5000;50.546;9.720;2023-11-19T05:47:56;97505.28;;;21.92;55.69
9923;BME280;5000;50.546;9.720;2023-11-19T05:52:49;97502.72;;;21.90;55.63
9923;BME280;5000;50.546;9.720;2023-11-19T05:57:44;97496.50;;;21.98;55.68
9923;BME280;5000;50.546;9.720;2023-11-19T06:02:38;97487.75;;;21.96;55.81
9923;BME280;5000;50.546;9.720;2023-11-19T06:07:32;97484.41;;;21.94;55.79
9923;BME280;5000;50.546;9.720;2023-11-19T06:12:27;97484.75;;;21.99;55.66
9923;BME280;5000;50.546;9.720;2023-11-19T06:17:20;97490.81;;;21.93;55.94
9923;BME280;5000;50.546;9.720;2023-11-19T06:22:13;97493.50;;;21.93;55.67
9923;BME280;5000;50.546;9.720;2023-11-19T06:27:07;97507.28;;;21.90;55.79
9923;BME280;5000;50.546;9.720;2023-11-19T06:32:01;97501.91;;;21.90;55.95
9923;BME280;5000;50.546;9.720;2023-11-19T06:37:05;97508.97;;;21.91;56.06
9923;BME280;5000;50.546;9.720;2023-11-19T06:42:01;97488.44;;;21.90;55.96
9923;BME280;5000;50.546;9.720;2023-11-19T06:46:55;97499.88;;;21.92;55.94
9923;BME280;5000;50.546;9.720;2023-11-19T06:51:48;97501.06;;;21.89;56.12
9923;BME280;5000;50.546;9.720;2023-11-19T06:56:41;97507.78;;;21.93;55.95
9923;BME280;5000;50.546;9.720;2023-11-19T07:01:34;97504.91;;;21.87;56.25
9923;BME280;5000;50.546;9.720;2023-11-19T07:06:29;97494.16;;;21.87;56.20
9923;BME280;5000;50.546;9.720;2023-11-19T07:11:26;97497.53;;;21.89;56.03
9923;BME280;5000;50.546;9.720;2023-11-19T07:16:19;97504.91;;;21.87;56.52
9923;BME280;5000;50.546;9.720;2023-11-19T07:21:13;97518.38;;;21.87;56.44
9923;BME280;5000;50.546;9.720;2023-11-19T07:26:07;97537.91;;;21.89;56.19
9923;BME280;5000;50.546;9.720;2023-11-19T07:31:01;97546.47;;;21.84;56.22
9923;BME280;5000;50.546;9.720;2023-11-19T07:35:55;97535.91;;;21.82;56.44
9923;BME280;5000;50.546;9.720;2023-11-19T07:40:48;97531.69;;;21.88;56.42
9923;BME280;5000;50.546;9.720;2023-11-19T07:45:45;97522.44;;;21.91;56.15
9923;BME280;5000;50.546;9.720;2023-11-19T07:50:38;97541.78;;;22.19;55.93
9923;BME280;5000;50.546;9.720;2023-11-19T07:55:32;97542.50;;;23.11;54.17
9923;BME280;5000;50.546;9.720;2023-11-19T08:00:25;97546.31;;;24.19;52.10
9923;BME280;5000;50.546;9.720;2023-11-19T08:05:19;97537.53;;;24.02;51.96
9923;BME280;5000;50.546;9.720;2023-11-19T08:10:12;97555.13;;;23.90;52.44
9923;BME280;5000;50.546;9.720;2023-11-19T08:15:07;97547.88;;;23.59;53.08
9923;BME280;5000;50.546;9.720;2023-11-19T08:20:00;97553.19;;;23.44;53.64
9923;BME280;5000;50.546;9.720;2023-11-19T08:24:56;97555.75;;;23.37;53.58
9923;BME280;5000;50.546;9.720;2023-11-19T08:29:49;97547.53;;;23.30;53.81
9923;BME280;5000;50.546;9.720;2023-11-19T08:34:42;97526.81;;;23.22;54.29
9923;BME280;5000;50.546;9.720;2023-11-19T08:39:35;97531.72;;;23.11;54.20
9923;BME280;5000;50.546;9.720;2023-11-19T08:44:30;97538.31;;;23.08;54.62
9923;BME280;5000;50.546;9.720;2023-11-19T08:49:23;97544.50;;;23.17;54.63
9923;BME280;5000;50.546;9.720;2023-11-19T08:54:17;97548.59;;;23.04;55.24
9923;BME280;5000;50.546;9.720;2023-11-19T08:59:11;97566.03;;;21.43;58.12
9923;BME280;5000;50.546;9.720;2023-11-19T09:04:09;97558.13;;;21.84;57.77
9923;BME280;5000;50.546;9.720;2023-11-19T09:09:02;97553.09;;;22.64;57.10
9923;BME280;5000;50.546;9.720;2023-11-19T09:13:57;97559.81;;;23.33;55.80
9923;BME280;5000;50.546;9.720;2023-11-19T09:18:50;97551.91;;;23.63;55.24
9923;BME280;5000;50.546;9.720;2023-11-19T09:23:44;97566.19;;;23.71;55.30
9923;BME280;5000;50.546;9.720;2023-11-19T09:28:39;97557.75;;;23.75;55.23
9923;BME280;5000;50.546;9.720;2023-11-19T09:33:32;97560.63;;;23.73;55.21
9923;BME280;5000;50.546;9.720;2023-11-19T09:38:26;97566.19;;;23.71;54.86
9923;BME280;5000;50.546;9.720;2023-11-19T09:43:21;97569.91;;;22.83;55.46
9923;BME280;5000;50.546;9.720;2023-11-19T09:48:16;97565.00;;;22.78;55.57
9923;BME280;5000;50.546;9.720;2023-11-19T09:53:09;97566.03;;;24.05;53.25
9923;BME280;5000;50.546;9.720;2023-11-19T09:58:03;97555.72;;;25.30;50.80
9923;BME280;5000;50.546;9.720;2023-11-19T10:02:57;97560.38;;;25.87;49.80
9923;BME280;5000;50.546;9.720;2023-11-19T10:07:52;97549.78;;;26.08;49.64
9923;BME280;5000;50.546;9.720;2023-11-19T10:12:47;97557.03;;;26.07;49.58
9923;BME280;5000;50.546;9.720;2023-11-19T10:17:43;97556.81;;;26.02;49.38
9923;BME280;5000;50.546;9.720;2023-11-19T10:22:38;97552.31;;;26.09;49.38
9923;BME280;5000;50.546;9.720;2023-11-19T10:27:31;97558.03;;;26.21;48.93
9923;BME280;5000;50.546;9.720;2023-11-19T10:32:27;97556.69;;;26.10;48.62
9923;BME280;5000;50.546;9.720;2023-11-19T10:37:29;97550.00;;;25.91;48.47
9923;BME280;5000;50.546;9.720;2023-11-19T10:42:25;97536.09;;;25.94;48.49
9923;BME280;5000;50.546;9.720;2023-11-19T10:47:19;97541.44;;;25.87;48.12
9923;BME280;5000;50.546;9.720;2023-11-19T10:52:29;97540.69;;;25.94;48.48
9923;BME280;5000;50.546;9.720;2023-11-19T10:57:27;97528.41;;;25.98;48.02
9923;BME280;5000;50.546;9.720;2023-11-19T11:02:26;97518.09;;;26.08;47.92
9923;BME280;5000;50.546;9.720;2023-11-19T11:07:21;97515.03;;;26.11;47.50
9923;BME280;5000;50.546;9.720;2023-11-19T11:12:30;97507.47;;;26.85;46.12
9923;BME280;5000;50.546;9.720;2023-11-19T11:17:28;97521.88;;;27.34;44.55
9923;BME280;5000;50.546;9.720;2023-11-19T11:22:22;97532.34;;;27.86;44.18
9923;BME280;5000;50.546;9.720;2023-11-19T11:27:49;97532.38;;;28.06;44.76
9923;BME280;5000;50.546;9.720;2023-11-19T11:32:53;97537.63;;;28.08;44.45
9923;BME280;5000;50.546;9.720;2023-11-19T11:37:51;97541.00;;;28.43;43.80
9923;BME280;5000;50.546;9.720;2023-11-19T11:42:47;97547.41;;;27.95;43.81
9923;BME280;5000;50.546;9.720;2023-11-19T11:48:11;97548.34;;;26.84;44.58
9923;BME280;5000;50.546;9.720;2023-11-19T11:53:14;97553.31;;;25.71;47.08
9923;BME280;5000;50.546;9.720;2023-11-19T11:58:10;97558.91;;;25.33;48.03
9923;BME280;5000;50.546;9.720;2023-11-19T12:03:04;97566.63;;;24.76;49.17
9923;BME280;5000;50.546;9.720;2023-11-19T12:08:00;97566.91;;;24.82;49.14
9923;BME280;5000;50.546;9.720;2023-11-19T12:12:53;97570.06;;;25.75;48.28
9923;BME280;5000;50.546;9.720;2023-11-19T12:17:52;97569.78;;;25.70;48.53
9923;BME280;5000;50.546;9.720;2023-11-19T12:22:46;97552.56;;;25.41;49.19
9923;BME280;5000;50.546;9.720;2023-11-19T12:27:41;97543.22;;;25.29;49.62
9923;BME280;5000;50.546;9.720;2023-11-19T12:32:38;97545.38;;;25.18;50.03
9923;BME280;5000;50.546;9.720;2023-11-19T12:37:34;97533.78;;;25.54;49.33
9923;BME280;5000;50.546;9.720;2023-11-19T12:42:37;97537.31;;;26.13;48.55
9923;BME280;5000;50.546;9.720;2023-11-19T12:47:30;97537.69;;;25.88;49.13
9923;BME280;5000;50.546;9.720;2023-11-19T12:52:24;97518.25;;;26.22;48.59
9923;BME280;5000;50.546;9.720;2023-11-19T12:57:18;97519.06;;;27.49;47.00
9923;BME280;5000;50.546;9.720;2023-11-19T13:02:11;97512.84;;;27.14;47.51
9923;BME280;5000;50.546;9.720;2023-11-19T13:07:04;97512.63;;;27.15;47.88
9923;BME280;5000;50.546;9.720;2023-11-19T13:11:58;97513.38;;;26.95;47.81
9923;BME280;5000;50.546;9.720;2023-11-19T13:16:54;97494.22;;;26.40;48.87
9923;BME280;5000;50.546;9.720;2023-11-19T13:21:47;97487.38;;;26.01;49.60
9923;BME280;5000;50.546;9.720;2023-11-19T13:26:40;97487.25;;;25.87;49.86
9923;BME280;5000;50.546;9.720;2023-11-19T13:31:33;97500.81;;;25.66;50.13
9923;BME280;5000;50.546;9.720;2023-11-19T13:36:28;97483.81;;;25.57;50.38
9923;BME280;5000;50.546;9.720;2023-11-19T13:41:21;97469.84;;;25.53;50.68
9923;BME280;5000;50.546;9.720;2023-11-19T13:46:15;97461.53;;;25.40;50.84
9923;BME280;5000;50.546;9.720;2023-11-19T13:51:08;97458.69;;;25.26;50.91
9923;BME280;5000;50.546;9.720;2023-11-19T13:56:04;97439.00;;;25.18;51.25
9923;BME280;5000;50.546;9.720;2023-11-19T14:00:57;97440.59;;;25.12;51.31
9923;BME280;5000;50.546;9.720;2023-11-19T14:05:50;97442.94;;;25.00;51.61
9923;BME280;5000;50.546;9.720;2023-11-19T14:10:46;97433.56;;;24.96;51.51
9923;BME280;5000;50.546;9.720;2023-11-19T14:15:41;97433.56;;;24.81;51.96
9923;BME280;5000;50.546;9.720;2023-11-19T14:20:35;97424.91;;;24.71;52.14
9923;BME280;5000;50.546;9.720;2023-11-19T14:25:29;97435.06;;;24.69;52.29
9923;BME280;5000;50.546;9.720;2023-11-19T14:30:22;97428.78;;;24.53;52.53
9923;BME280;5000;50.546;9.720;2023-11-19T14:35:17;97421.13;;;24.42;52.95
9923;BME280;5000;50.546;9.720;2023-11-19T14:40:10;97445.00;;;24.38;52.65
9923;BME280;5000;50.546;9.720;2023-11-19T14:45:04;97441.16;;;24.17;53.09
9923;BME280;5000;50.546;9.720;2023-11-19T14:49:57;97450.53;;;24.07;53.68
9923;BME280;5000;50.546;9.720;2023-11-19T14:54:52;97469.53;;;23.98;54.23
9923;BME280;5000;50.546;9.720;2023-11-19T14:59:48;97481.38;;;23.89;54.31
9923;BME280;5000;50.546;9.720;2023-11-19T15:04:41;97467.75;;;23.82;54.56
9923;BME280;5000;50.546;9.720;2023-11-19T15:09:36;97482.63;;;23.78;54.95
9923;BME280;5000;50.546;9.720;2023-11-19T15:14:30;97488.56;;;23.74;54.55
9923;BME280;5000;50.546;9.720;2023-11-19T15:19:23;97486.59;;;23.67;54.88
9923;BME280;5000;50.546;9.720;2023-11-19T15:24:16;97511.63;;;23.61;54.82
9923;BME280;5000;50.546;9.720;2023-11-19T15:29:09;97495.44;;;23.53;54.85
9923;BME280;5000;50.546;9.720;2023-11-19T15:34:03;97505.47;;;23.44;54.27
9923;BME280;5000;50.546;9.720;2023-11-19T15:38:56;97497.59;;;22.86;53.56
9923;BME280;5000;50.546;9.720;2023-11-19T15:43:50;97496.69;;;21.20;55.00
9923;BME280;5000;50.546;9.720;2023-11-19T15:48:43;97487.63;;;21.97;55.05
9923;BME280;5000;50.546;9.720;2023-11-19T15:53:38;97497.09;;;22.83;54.42
9923;BME280;5000;50.546;9.720;2023-11-19T15:58:32;97504.00;;;23.33;54.68
9923;BME280;5000;50.546;9.720;2023-11-19T16:03:26;97516.56;;;23.73;54.90
9923;BME280;5000;50.546;9.720;2023-11-19T16:08:20;97535.31;;;24.44;53.39
9923;BME280;5000;50.546;9.720;2023-11-19T16:13:15;97513.88;;;24.57;53.05
9923;BME280;5000;50.546;9.720;2023-11-19T16:18:08;97508.84;;;24.39;53.39
9923;BME280;5000;50.546;9.720;2023-11-19T16:23:04;97503.47;;;24.16;53.74
9923;BME280;5000;50.546;9.720;2023-11-19T16:27:57;97500.34;;;24.04;54.13
9923;BME280;5000;50.546;9.720;2023-11-19T16:32:53;97496.69;;;23.97;54.29
9923;BME280;5000;50.546;9.720;2023-11-19T16:37:50;97501.94;;;23.90;54.72
9923;BME280;5000;50.546;9.720;2023-11-19T16:42:43;97503.41;;;23.78;54.74
9923;BME280;5000;50.546;9.720;2023-11-19T16:47:37;97496.78;;;23.57;56.45
9923;BME280;5000;50.546;9.720;2023-11-19T16:52:32;97500.84;;;23.53;57.44
9923;BME280;5000;50.546;9.720;2023-11-19T16:57:25;97505.75;;;23.49;57.33
9923;BME280;5000;50.546;9.720;2023-11-19T17:02:19;97503.66;;;23.60;57.34
9923;BME280;5000;50.546;9.720;2023-11-19T17:07:12;97507.31;;;23.75;56.71
9923;BME280;5000;50.546;9.720;2023-11-19T17:12:07;97519.72;;;23.84;56.77
9923;BME280;5000;50.546;9.720;2023-11-19T17:17:00;97523.63;;;22.63;54.05
9923;BME280;5000;50.546;9.720;2023-11-19T17:21:53;97529.97;;;23.66;55.15
9923;BME280;5000;50.546;9.720;2023-11-19T17:26:46;97531.91;;;24.27;55.92
9923;BME280;5000;50.546;9.720;2023-11-19T17:31:40;97547.06;;;25.04;54.18
9923;BME280;5000;50.546;9.720;2023-11-19T17:36:35;97562.16;;;25.44;54.12
9923;BME280;5000;50.546;9.720;2023-11-19T17:41:28;97569.06;;;25.61;55.17
9923;BME280;5000;50.546;9.720;2023-11-19T17:46:21;97553.41;;;25.56;58.29
9923;BME280;5000;50.546;9.720;2023-11-19T17:51:15;97549.94;;;25.48;58.78
9923;BME280;5000;50.546;9.720;2023-11-19T17:56:10;97547.44;;;25.46;57.90
9923;BME280;5000;50.546;9.720;2023-11-19T18:01:04;97538.38;;;25.24;55.20
9923;BME280;5000;50.546;9.720;2023-11-19T18:05:58;97541.44;;;24.76;57.01
9923;BME280;5000;50.546;9.720;2023-11-19T18:10:53;97537.84;;;24.60;56.73
9923;BME280;5000;50.546;9.720;2023-11-19T18:15:46;97535.94;;;24.46;57.24
9923;BME280;5000;50.546;9.720;2023-11-19T18:20:39;97533.31;;;24.38;57.63
9923;BME280;5000;50.546;9.720;2023-11-19T18:25:32;97531.44;;;24.23;57.93
9923;BME280;5000;50.546;9.720;2023-11-19T18:30:26;97536.91;;;24.15;58.12
9923;BME280;5000;50.546;9.720;2023-11-19T18:35:19;97546.69;;;24.16;58.16
9923;BME280;5000;50.546;9.720;2023-11-19T18:40:15;97539.97;;;24.12;58.13
9923;BME280;5000;50.546;9.720;2023-11-19T18:45:12;97546.66;;;24.01;58.31
9923;BME280;5000;50.546;9.720;2023-11-19T18:50:08;97543.97;;;23.93;58.61
9923;BME280;5000;50.546;9.720;2023-11-19T18:55:01;97549.69;;;23.98;58.33
9923;BME280;5000;50.546;9.720;2023-11-19T18:59:55;97555.59;;;23.93;58.90
9923;BME280;5000;50.546;9.720;2023-11-19T19:04:48;97550.59;;;23.82;58.28
9923;BME280;5000;50.546;9.720;2023-11-19T19:09:43;97550.94;;;23.87;58.45
9923;BME280;5000;50.546;9.720;2023-11-19T19:15:06;97537.16;;;23.74;59.14
9923;BME280;5000;50.546;9.720;2023-11-19T19:20:07;97539.53;;;23.45;59.85
9923;BME280;5000;50.546;9.720;2023-11-19T19:25:04;97524.56;;;23.34;60.10
9923;BME280;5000;50.546;9.720;2023-11-19T19:29:58;97524.53;;;23.43;59.33
9923;BME280;5000;50.546;9.720;2023-11-19T19:34:51;97524.47;;;23.82;58.91
9923;BME280;5000;50.546;9.720;2023-11-19T19:39:45;97527.56;;;23.71;59.59
9923;BME280;5000;50.546;9.720;2023-11-19T19:44:39;97533.78;;;23.71;59.39
9923;BME280;5000;50.546;9.720;2023-11-19T19:49:32;97542.84;;;23.55;57.51
9923;BME280;5000;50.546;9.720;2023-11-19T19:54:25;97545.56;;;23.55;59.02
9923;BME280;5000;50.546;9.720;2023-11-19T19:59:18;97551.44;;;23.59;59.80
9923;BME280;5000;50.546;9.720;2023-11-19T20:04:13;97551.47;;;23.51;59.96
9923;BME280;5000;50.546;9.720;2023-11-19T20:09:06;97548.94;;;23.49;60.02
9923;BME280;5000;50.546;9.720;2023-11-19T20:13:59;97545.41;;;23.49;60.23
9923;BME280;5000;50.546;9.720;2023-11-19T20:18:52;97546.72;;;23.53;60.03
9923;BME280;5000;50.546;9.720;2023-11-19T20:23:47;97560.94;;;23.47;60.21
9923;BME280;5000;50.546;9.720;2023-11-19T20:28:40;97562.81;;;23.46;60.29
9923;BME280;5000;50.546;9.720;2023-11-19T20:33:33;97558.25;;;23.47;60.36
9923;BME280;5000;50.546;9.720;2023-11-19T20:38:26;97559.97;;;23.39;60.68
9923;BME280;5000;50.546;9.720;2023-11-19T20:43:20;97561.66;;;23.41;60.69
9923;BME280;5000;50.546;9.720;2023-11-19T20:48:14;97566.84;;;23.42;60.37
9923;BME280;5000;50.546;9.720;2023-11-19T20:53:06;97560.97;;;23.38;60.65
9923;BME280;5000;50.546;9.720;2023-11-19T20:58:00;97569.59;;;23.34;61.14
9923;BME280;5000;50.546;9.720;2023-11-19T21:02:56;97570.41;;;23.43;60.70
9923;BME280;5000;50.546;9.720;2023-11-19T21:07:50;97562.03;;;21.47;56.70
9923;BME280;5000;50.546;9.720;2023-11-19T21:12:43;97554.09;;;22.38;56.35
9923;BME280;5000;50.546;9.720;2023-11-19T21:17:36;97549.50;;;22.88;59.70
9923;BME280;5000;50.546;9.720;2023-11-19T21:22:31;97557.69;;;23.12;59.59
9923;BME280;5000;50.546;9.720;2023-11-19T21:27:24;97564.91;;;23.11;59.32
9923;BME280;5000;50.546;9.720;2023-11-19T21:32:19;97551.56;;;23.26;59.62
9923;BME280;5000;50.546;9.720;2023-11-19T21:37:11;97547.72;;;23.20;59.96
9923;BME280;5000;50.546;9.720;2023-11-19T21:42:06;97553.13;;;23.20;59.90
9923;BME280;5000;50.546;9.720;2023-11-19T21:46:59;97553.97;;;23.13;60.27
9923;BME280;5000;50.546;9.720;2023-11-19T21:51:52;97550.91;;;23.16;60.09
9923;BME280;5000;50.546;9.720;2023-11-19T21:56:45;97546.88;;;23.12;60.18
9923;BME280;5000;50.546;9.720;2023-11-19T22:01:39;97548.88;;;23.18;59.99
9923;BME280;5000;50.546;9.720;2023-11-19T22:06:32;97551.78;;;23.08;60.59
9923;BME280;5000;50.546;9.720;2023-11-19T22:11:25;97549.41;;;23.13;60.13
9923;BME280;5000;50.546;9.720;2023-11-19T22:16:19;97543.72;;;23.08;60.50
9923;BME280;5000;50.546;9.720;2023-11-19T22:21:14;97541.16;;;23.06;60.39
9923;BME280;5000;50.546;9.720;2023-11-19T22:26:07;97536.66;;;22.99;60.61
9923;BME280;5000;50.546;9.720;2023-11-19T22:31:00;97533.97;;;22.99;60.85
9923;BME280;5000;50.546;9.720;2023-11-19T22:35:53;97542.38;;;22.96;60.73
9923;BME280;5000;50.546;9.720;2023-11-19T22:40:48;97537.66;;;22.98;60.54
9923;BME280;5000;50.546;9.720;2023-11-19T22:45:41;97530.59;;;22.97;60.72
9923;BME280;5000;50.546;9.720;2023-11-19T22:50:34;97527.22;;;22.95;60.81
9923;BME280;5000;50.546;9.720;2023-11-19T22:55:26;97513.91;;;22.93;60.86
9923;BME280;5000;50.546;9.720;2023-11-19T23:00:21;97509.72;;;22.90;60.78
9923;BME280;5000;50.546;9.720;2023-11-19T23:05:20;97510.38;;;22.92;60.92
9923;BME280;5000;50.546;9.720;2023-11-19T23:10:13;97511.94;;;22.87;60.94
9923;BME280;5000;50.546;9.720;2023-11-19T23:15:08;97520.00;;;22.87;60.62
9923;BME280;5000;50.546;9.720;2023-11-19T23:20:08;97515.94;;;22.91;60.74
9923;BME280;5000;50.546;9.720;2023-11-19T23:25:05;97517.13;;;22.88;60.99
9923;BME280;5000;50.546;9.720;2023-11-19T23:29:59;97514.09;;;22.83;61.17
9923;BME280;5000;50.546;9.720;2023-11-19T23:34:52;97517.31;;;22.78;61.33
9923;BME280;5000;50.546;9.720;2023-11-19T23:39:46;97509.91;;;22.81;61.10
9923;BME280;5000;50.546;9.720;2023-11-19T23:44:40;97508.22;;;22.80;61.51
9923;BME280;5000;50.546;9.720;2023-11-19T23:49:33;97508.22;;;22.80;61.34
9923;BME280;5000;50.546;9.720;2023-11-19T23:54:26;97505.22;;;22.74;61.74
9923;BME280;5000;50.546;9.720;2023-11-19T23:59:20;97510.13;;;22.71;61.83
